createdAt,value
2019-05-31T00:01:31.711Z,2.40
2019-05-31T00:04:01.480Z,2.60
2019-05-31T00:06:30.141Z,2.47
2019-05-31T00:08:59.760Z,2.87
2019-05-31T00:11:28.393Z,2.70
2019-05-31T00:14:12.656Z,2.70
2019-05-31T00:16:26.989Z,2.90
2019-05-31T00:18:56.773Z,3.03
2019-05-31T00:21:25.456Z,2.97
2019-05-31T00:23:54.075Z,3.10
2019-05-31T00:26:22.705Z,3.07
2019-05-31T00:28:51.111Z,2.90
2019-05-31T00:31:19.549Z,2.73
2019-05-31T00:33:47.970Z,3.00
2019-05-31T00:36:16.377Z,2.70
2019-05-31T00:38:44.848Z,3.10
2019-05-31T00:41:13.281Z,2.57
2019-05-31T00:43:41.685Z,3.03
2019-05-31T00:46:10.121Z,3.00
2019-05-31T00:48:38.550Z,2.70
2019-05-31T00:51:07.036Z,3.60
2019-05-31T00:53:35.473Z,2.67
2019-05-31T00:56:04.598Z,3.20
2019-05-31T00:58:33.045Z,3.80
2019-05-31T01:01:03.582Z,3.37
2019-05-31T01:03:31.707Z,3.17
2019-05-31T01:06:01.266Z,3.07
2019-05-31T01:08:29.902Z,3.27
2019-05-31T01:10:59.496Z,3.30
2019-05-31T01:13:28.148Z,3.03
2019-05-31T01:15:57.804Z,3.70
2019-05-31T01:18:26.394Z,3.50
2019-05-31T01:20:55.275Z,2.80
2019-05-31T01:23:23.719Z,3.17
2019-05-31T01:25:52.141Z,3.27
2019-05-31T01:28:20.589Z,3.23
2019-05-31T01:30:49.185Z,3.90
2019-05-31T01:33:17.637Z,3.13
2019-05-31T01:35:46.033Z,3.07
2019-05-31T01:38:14.485Z,3.30
2019-05-31T01:40:42.989Z,4.00
2019-05-31T01:43:14.423Z,3.63
2019-05-31T01:45:41.637Z,3.30
2019-05-31T01:48:10.085Z,3.33
2019-05-31T01:50:38.514Z,3.20
2019-05-31T01:53:07.943Z,3.50
2019-05-31T01:55:36.543Z,3.03
2019-05-31T01:58:05.087Z,3.63
2019-05-31T02:00:33.671Z,3.57
2019-05-31T02:03:02.139Z,3.00
2019-05-31T02:05:30.684Z,4.00
2019-05-31T02:07:59.109Z,3.70
2019-05-31T02:10:27.559Z,4.33
2019-05-31T02:12:56.051Z,3.30
2019-05-31T02:15:31.974Z,3.60
2019-05-31T02:17:55.089Z,3.90
2019-05-31T02:20:23.582Z,3.83
2019-05-31T02:22:51.997Z,4.03
2019-05-31T02:25:20.505Z,4.07
2019-05-31T02:27:48.914Z,4.03
2019-05-31T02:30:20.079Z,4.10
2019-05-31T02:32:47.643Z,3.47
2019-05-31T02:35:18.087Z,4.20
2019-05-31T02:37:46.286Z,4.20
2019-05-31T02:40:16.965Z,3.50
2019-05-31T02:42:45.091Z,3.50
2019-05-31T02:45:14.551Z,4.53
2019-05-31T02:47:44.151Z,3.80
2019-05-31T02:50:15.039Z,3.77
2019-05-31T02:52:43.619Z,3.70
2019-05-31T02:55:12.733Z,3.97
2019-05-31T02:57:43.590Z,3.80
2019-05-31T03:00:16.380Z,4.90
2019-05-31T03:02:45.450Z,4.10
2019-05-31T03:05:14.821Z,3.70
2019-05-31T03:07:44.337Z,3.47
2019-05-31T03:10:15.205Z,3.80
2019-05-31T03:12:45.884Z,3.70
2019-05-31T03:15:16.901Z,4.20
2019-05-31T03:17:45.925Z,4.10
2019-05-31T03:20:15.999Z,3.63
2019-05-31T03:22:45.262Z,3.80
2019-05-31T03:25:14.420Z,3.70
2019-05-31T03:27:42.916Z,4.20
2019-05-31T03:30:15.116Z,3.97
2019-05-31T03:32:42.134Z,4.13
2019-05-31T03:35:10.738Z,3.60
2019-05-31T03:37:39.181Z,4.00
2019-05-31T03:40:08.017Z,3.63
2019-05-31T03:42:36.451Z,3.30
2019-05-31T03:45:06.520Z,4.20
2019-05-31T03:47:34.988Z,4.77
2019-05-31T03:50:04.957Z,4.20
2019-05-31T03:52:33.446Z,5.30
2019-05-31T03:55:01.857Z,4.67
2019-05-31T03:57:30.300Z,4.20
2019-05-31T03:59:58.707Z,5.20
2019-05-31T04:02:27.139Z,4.20
2019-05-31T04:04:55.603Z,4.13
2019-05-31T04:07:24.080Z,4.47
2019-05-31T04:09:52.502Z,4.37
2019-05-31T04:12:21.854Z,3.83
2019-05-31T04:14:50.450Z,3.83
2019-05-31T04:17:19.728Z,4.50
2019-05-31T04:19:48.590Z,4.73
2019-05-31T04:22:17.664Z,3.93
2019-05-31T04:24:46.648Z,4.00
2019-05-31T04:27:15.803Z,5.50
2019-05-31T04:29:44.349Z,4.50
2019-05-31T04:32:12.764Z,4.27
2019-05-31T04:34:41.215Z,4.50
2019-05-31T04:37:09.644Z,5.03
2019-05-31T04:39:38.066Z,4.13
2019-05-31T04:42:06.513Z,4.50
2019-05-31T04:44:34.964Z,4.37
2019-05-31T04:47:10.533Z,4.57
2019-05-31T04:49:33.611Z,4.60
2019-05-31T04:52:02.030Z,4.70
2019-05-31T04:54:30.509Z,4.80
2019-05-31T04:56:59.027Z,3.97
2019-05-31T04:59:27.803Z,4.00
2019-05-31T05:01:56.342Z,4.70
2019-05-31T05:04:24.806Z,4.40
2019-05-31T05:06:53.267Z,4.50
2019-05-31T05:09:25.161Z,5.40
2019-05-31T05:11:51.838Z,4.80
2019-05-31T05:14:20.644Z,4.37
2019-05-31T05:16:49.169Z,4.10
2019-05-31T05:19:18.594Z,4.27
2019-05-31T05:21:47.100Z,4.70
2019-05-31T05:24:16.767Z,4.37
2019-05-31T05:26:45.336Z,5.10
2019-05-31T05:29:13.767Z,4.60
2019-05-31T05:31:42.178Z,4.97
2019-05-31T05:34:10.626Z,4.27
2019-05-31T05:36:39.060Z,4.70
2019-05-31T05:39:07.869Z,4.10
2019-05-31T05:41:36.273Z,4.50
2019-05-31T05:44:04.853Z,5.33
2019-05-31T05:46:33.272Z,4.30
2019-05-31T05:49:01.736Z,4.90
2019-05-31T05:51:30.230Z,4.20
2019-05-31T05:53:58.695Z,4.70
2019-05-31T05:56:27.112Z,4.70
2019-05-31T05:58:55.554Z,4.80
2019-05-31T06:01:25.300Z,4.47
2019-05-31T06:03:53.884Z,4.50
2019-05-31T06:06:22.331Z,5.20
2019-05-31T06:08:50.732Z,4.50
2019-05-31T06:11:19.173Z,4.80
2019-05-31T06:13:47.583Z,5.17
2019-05-31T06:16:16.097Z,5.10
2019-05-31T06:18:44.528Z,5.17
2019-05-31T06:21:12.956Z,5.20
2019-05-31T06:23:41.377Z,4.83
2019-05-31T06:26:09.873Z,5.47
2019-05-31T06:28:38.309Z,4.70
2019-05-31T06:31:06.740Z,5.30
2019-05-31T06:33:35.165Z,4.30
2019-05-31T06:36:04.177Z,4.37
2019-05-31T06:38:33.016Z,4.60
2019-05-31T06:41:01.468Z,5.20
2019-05-31T06:43:33.542Z,4.67
2019-05-31T06:46:00.054Z,5.20
2019-05-31T06:48:29.587Z,5.47
2019-05-31T06:50:58.232Z,4.93
2019-05-31T06:53:27.260Z,4.97
2019-05-31T06:55:55.870Z,4.80
2019-05-31T06:58:24.292Z,4.37
2019-05-31T07:00:52.756Z,3.93
2019-05-31T07:03:21.173Z,4.60
2019-05-31T07:05:56.697Z,4.00
2019-05-31T07:08:19.773Z,4.20
2019-05-31T07:10:48.181Z,4.13
2019-05-31T07:13:16.744Z,4.20
2019-05-31T07:15:45.153Z,4.10
2019-05-31T07:18:13.592Z,3.80
2019-05-31T07:20:42.007Z,3.37
2019-05-31T07:23:10.533Z,3.67
2019-05-31T07:25:39.053Z,3.80
2019-05-31T07:28:07.582Z,3.60
2019-05-31T07:30:36.068Z,3.43
2019-05-31T07:33:04.653Z,3.80
2019-05-31T07:35:34.061Z,3.60
2019-05-31T07:38:02.614Z,3.07
2019-05-31T07:40:31.052Z,3.47
2019-05-31T07:42:59.488Z,2.90
2019-05-31T07:45:27.983Z,3.03
2019-05-31T07:47:57.224Z,3.30
2019-05-31T07:50:25.657Z,3.60
2019-05-31T07:52:54.105Z,3.33
2019-05-31T07:55:22.517Z,3.00
2019-05-31T07:57:50.927Z,3.20
2019-05-31T08:00:20.329Z,3.27
2019-05-31T08:02:48.742Z,3.30
2019-05-31T08:05:17.178Z,2.80
2019-05-31T08:07:45.605Z,2.83
2019-05-31T08:10:14.507Z,3.70
2019-05-31T08:12:42.926Z,3.80
2019-05-31T08:15:11.907Z,3.43
2019-05-31T08:17:52.790Z,3.30
2019-05-31T08:20:10.908Z,3.07
2019-05-31T08:22:39.351Z,2.70
2019-05-31T08:25:08.425Z,2.70
2019-05-31T08:27:37.188Z,2.90
2019-05-31T08:30:07.434Z,3.30
2019-05-31T08:32:36.882Z,2.93
2019-05-31T08:35:06.179Z,3.00
2019-05-31T08:37:34.662Z,2.63
2019-05-31T08:40:03.678Z,3.27
2019-05-31T08:42:32.604Z,3.27
2019-05-31T08:45:06.677Z,3.20
2019-05-31T08:47:32.293Z,3.47
2019-05-31T08:50:01.611Z,2.53
2019-05-31T08:52:39.378Z,2.40
2019-05-31T08:55:02.039Z,3.10
2019-05-31T08:57:31.709Z,3.10
2019-05-31T09:00:00.369Z,3.27
2019-05-31T09:02:29.762Z,3.07
2019-05-31T09:04:58.388Z,2.80
2019-05-31T09:07:27.814Z,2.80
2019-05-31T09:09:56.981Z,2.50
2019-05-31T09:12:25.566Z,2.33
2019-05-31T09:14:54.038Z,2.70
2019-05-31T09:17:22.470Z,2.57
2019-05-31T09:19:58.662Z,2.67
2019-05-31T09:22:21.063Z,2.60
2019-05-31T09:24:49.484Z,2.20
2019-05-31T09:27:18.126Z,2.20
2019-05-31T09:30:16.851Z,2.30
2019-05-31T09:32:17.062Z,2.10
2019-05-31T09:34:45.474Z,2.40
2019-05-31T09:37:13.909Z,2.07
2019-05-31T09:39:45.274Z,2.80
2019-05-31T09:42:12.601Z,1.87
2019-05-31T09:44:41.467Z,2.40
2019-05-31T09:47:10.046Z,2.20
2019-05-31T09:49:39.612Z,2.37
2019-05-31T09:52:08.263Z,2.20
2019-05-31T09:54:47.386Z,1.73
2019-05-31T09:57:06.854Z,2.40
2019-05-31T09:59:36.347Z,1.80
2019-05-31T10:02:05.197Z,2.03
2019-05-31T10:04:33.864Z,2.17
2019-05-31T10:07:02.444Z,2.60
2019-05-31T10:09:32.767Z,2.43
2019-05-31T10:12:01.469Z,2.20
2019-05-31T10:14:29.914Z,2.10
2019-05-31T10:16:58.365Z,1.80
2019-05-31T10:19:27.068Z,1.80
2019-05-31T10:21:55.531Z,1.90
2019-05-31T10:24:23.945Z,1.80
2019-05-31T10:26:52.481Z,1.60
2019-05-31T10:29:20.902Z,1.67
2019-05-31T10:31:49.379Z,1.93
2019-05-31T10:34:17.959Z,1.70
2019-05-31T10:36:46.398Z,1.30
2019-05-31T10:39:14.828Z,2.00
2019-05-31T10:41:44.150Z,1.70
2019-05-31T10:44:12.783Z,1.80
2019-05-31T10:46:42.577Z,2.03
2019-05-31T10:49:11.127Z,1.40
2019-05-31T10:51:40.476Z,1.30
2019-05-31T10:54:09.146Z,1.37
2019-05-31T10:56:38.683Z,1.73
2019-05-31T10:59:07.255Z,1.40
2019-05-31T11:01:36.524Z,1.70
2019-05-31T11:04:05.241Z,1.53
2019-05-31T11:06:34.558Z,1.20
2019-05-31T11:09:03.134Z,1.70
2019-05-31T11:11:31.540Z,1.90
2019-05-31T11:14:00.053Z,2.00
2019-05-31T11:16:29.722Z,1.40
2019-05-31T11:18:58.318Z,1.57
2019-05-31T11:21:26.842Z,1.77
2019-05-31T11:23:55.288Z,1.50
2019-05-31T11:26:23.769Z,1.20
2019-05-31T11:28:52.206Z,1.43
2019-05-31T11:31:20.712Z,1.53
2019-05-31T11:33:51.515Z,1.50
2019-05-31T11:36:19.393Z,1.33
2019-05-31T11:38:47.803Z,1.50
2019-05-31T11:41:16.241Z,1.60
2019-05-31T11:43:45.210Z,1.20
2019-05-31T11:46:13.822Z,1.27
2019-05-31T11:48:43.072Z,1.37
2019-05-31T11:51:28.042Z,1.40
2019-05-31T11:53:46.199Z,1.63
2019-05-31T11:56:14.057Z,1.83
2019-05-31T11:58:43.727Z,2.50
2019-05-31T12:01:12.508Z,1.43
2019-05-31T12:03:41.680Z,1.10
2019-05-31T12:06:15.508Z,1.10
2019-05-31T12:08:42.218Z,1.10
2019-05-31T12:11:10.601Z,1.40
2019-05-31T12:13:40.020Z,1.40
2019-05-31T12:16:08.631Z,1.30
2019-05-31T12:18:38.348Z,1.20
2019-05-31T12:21:07.059Z,1.37
2019-05-31T12:23:35.483Z,1.17
2019-05-31T12:26:04.645Z,1.20
2019-05-31T12:28:33.071Z,1.40
2019-05-31T12:31:01.504Z,1.40
2019-05-31T12:33:30.012Z,1.10
2019-05-31T12:35:58.460Z,1.00
2019-05-31T12:38:26.860Z,0.90
2019-05-31T12:40:59.535Z,1.10
2019-05-31T12:43:25.465Z,1.13
2019-05-31T12:46:06.213Z,1.10
2019-05-31T12:48:24.047Z,1.30
2019-05-31T12:50:52.474Z,1.10
2019-05-31T12:53:20.905Z,0.90
2019-05-31T12:55:49.343Z,0.80
2019-05-31T12:58:17.764Z,0.97
2019-05-31T13:00:47.291Z,0.90
2019-05-31T13:03:15.817Z,0.90
2019-05-31T13:05:45.386Z,0.90
2019-05-31T13:08:13.937Z,0.80
2019-05-31T13:10:42.537Z,0.70
2019-05-31T13:13:10.996Z,1.00
2019-05-31T13:15:39.422Z,0.90
2019-05-31T13:18:07.937Z,0.70
2019-05-31T13:20:36.372Z,0.87
2019-05-31T13:23:04.868Z,0.80
2019-05-31T13:25:33.401Z,0.80
2019-05-31T13:28:01.850Z,0.80
2019-05-31T13:30:30.338Z,0.90
2019-05-31T13:32:58.873Z,0.90
2019-05-31T13:35:27.305Z,0.90
2019-05-31T13:37:56.781Z,0.97
2019-05-31T13:40:25.500Z,0.83
2019-05-31T13:42:54.213Z,0.90
2019-05-31T13:45:22.938Z,0.90
2019-05-31T13:47:59.718Z,1.20
2019-05-31T13:50:22.594Z,0.87
2019-05-31T13:52:52.594Z,1.00
2019-05-31T13:55:21.448Z,1.00
2019-05-31T13:57:51.137Z,0.90
2019-05-31T14:00:20.142Z,0.80
2019-05-31T14:02:49.241Z,0.77
2019-05-31T14:05:18.133Z,0.70
2019-05-31T14:07:48.163Z,0.70
2019-05-31T14:10:17.222Z,0.80
2019-05-31T14:12:45.642Z,0.73
2019-05-31T14:15:15.743Z,0.90
2019-05-31T14:17:44.192Z,0.90
2019-05-31T14:20:12.792Z,0.90
2019-05-31T14:22:57.536Z,0.80
2019-05-31T14:25:12.126Z,0.90
2019-05-31T14:27:40.590Z,0.90
2019-05-31T14:30:11.169Z,1.00
2019-05-31T14:32:39.589Z,0.90
2019-05-31T14:35:08.476Z,0.80
2019-05-31T14:37:37.100Z,0.77
2019-05-31T14:40:06.479Z,0.73
2019-05-31T14:42:35.071Z,0.77
2019-05-31T14:45:08.190Z,1.07
2019-05-31T14:47:35.576Z,0.70
2019-05-31T14:50:09.041Z,0.80
2019-05-31T14:52:37.457Z,0.70
2019-05-31T14:55:07.074Z,1.00
2019-05-31T14:57:35.571Z,0.90
2019-05-31T15:00:05.641Z,1.07
2019-05-31T15:02:34.037Z,0.90
2019-05-31T15:05:05.526Z,1.00
2019-05-31T15:07:33.548Z,1.10
2019-05-31T15:10:02.207Z,0.90
2019-05-31T15:12:33.916Z,1.00
2019-05-31T15:15:03.036Z,1.27
2019-05-31T15:17:31.608Z,0.90
2019-05-31T15:20:01.548Z,0.90
2019-05-31T15:22:30.369Z,0.90
2019-05-31T15:24:58.824Z,1.00
2019-05-31T15:27:27.254Z,1.00
2019-05-31T15:29:55.693Z,0.97
2019-05-31T15:32:39.745Z,0.90
2019-05-31T15:35:08.502Z,1.07
2019-05-31T15:37:37.366Z,0.90
2019-05-31T15:40:11.402Z,1.10
2019-05-31T15:42:48.885Z,0.90
2019-05-31T15:45:17.685Z,0.90
2019-05-31T15:47:46.244Z,0.80
2019-05-31T15:50:16.241Z,1.00
2019-05-31T15:52:44.744Z,1.07
2019-05-31T15:55:18.473Z,1.20
2019-05-31T15:57:43.633Z,1.33
2019-05-31T16:00:12.511Z,0.80
2019-05-31T16:02:40.968Z,1.20
2019-05-31T16:05:09.557Z,1.07
2019-05-31T16:07:38.028Z,0.80
2019-05-31T16:10:07.371Z,1.10
2019-05-31T16:12:36.027Z,0.83
2019-05-31T16:15:07.418Z,1.30
2019-05-31T16:17:35.969Z,1.30
2019-05-31T16:20:07.422Z,1.20
2019-05-31T16:22:36.122Z,2.10
2019-05-31T16:25:05.979Z,1.20
2019-05-31T16:27:34.854Z,1.20
2019-05-31T16:30:04.549Z,1.20
2019-05-31T16:32:32.989Z,0.80
2019-05-31T16:35:02.400Z,1.20
2019-05-31T16:37:31.028Z,0.80
2019-05-31T16:40:00.410Z,0.90
2019-05-31T16:42:29.156Z,0.90
2019-05-31T16:44:57.581Z,0.97
2019-05-31T16:47:26.028Z,0.90
2019-05-31T16:49:57.200Z,1.00
2019-05-31T16:52:24.598Z,0.80
2019-05-31T16:54:53.054Z,1.30
2019-05-31T16:57:21.515Z,0.90
2019-05-31T16:59:50.018Z,0.80
2019-05-31T17:02:18.527Z,0.80
2019-05-31T17:04:47.018Z,0.90
2019-05-31T17:07:15.463Z,0.80
2019-05-31T17:09:43.969Z,0.90
2019-05-31T17:12:12.453Z,0.90
2019-05-31T17:14:41.048Z,0.90
2019-05-31T17:17:10.148Z,1.00
2019-05-31T17:19:38.794Z,0.97
2019-05-31T17:22:08.733Z,0.83
2019-05-31T17:24:41.215Z,1.10
2019-05-31T17:27:08.773Z,1.13
2019-05-31T17:29:37.535Z,1.00
2019-05-31T17:32:07.063Z,0.90
2019-05-31T17:34:42.762Z,1.20
2019-05-31T17:37:07.311Z,0.90
2019-05-31T17:39:35.935Z,1.00
2019-05-31T17:42:05.552Z,0.90
2019-05-31T17:44:34.120Z,1.10
2019-05-31T17:47:03.772Z,1.03
2019-05-31T17:49:32.479Z,1.20
2019-05-31T17:52:00.899Z,1.10
2019-05-31T17:54:29.330Z,1.13
2019-05-31T17:56:57.840Z,1.13
2019-05-31T17:59:26.315Z,1.40
2019-05-31T18:01:54.781Z,1.10
2019-05-31T18:04:23.248Z,1.17
2019-05-31T18:06:51.914Z,1.00
2019-05-31T18:09:20.505Z,1.27
2019-05-31T18:11:48.941Z,0.90
2019-05-31T18:14:17.446Z,1.20
2019-05-31T18:16:45.964Z,1.20
2019-05-31T18:19:15.059Z,1.50
2019-05-31T18:21:44.084Z,1.50
2019-05-31T18:24:13.354Z,1.63
2019-05-31T18:26:42.100Z,1.83
2019-05-31T18:29:12.030Z,2.03
2019-05-31T18:31:40.718Z,2.10
2019-05-31T18:34:10.153Z,1.53
2019-05-31T18:36:38.668Z,1.73
2019-05-31T18:39:10.364Z,1.67
2019-05-31T18:41:39.248Z,1.93
2019-05-31T18:44:07.762Z,1.53
2019-05-31T18:46:36.225Z,1.57
2019-05-31T18:49:04.883Z,1.50
2019-05-31T18:51:33.453Z,1.60
2019-05-31T18:54:01.934Z,2.10
2019-05-31T18:56:30.472Z,2.67
2019-05-31T18:58:58.896Z,2.63
2019-05-31T19:01:27.417Z,2.80
2019-05-31T19:03:55.909Z,2.13
2019-05-31T19:06:24.472Z,1.93
2019-05-31T19:08:52.899Z,2.27
2019-05-31T19:11:21.426Z,1.63
2019-05-31T19:13:49.925Z,1.60
2019-05-31T19:16:19.515Z,1.30
2019-05-31T19:18:48.103Z,1.33
2019-05-31T19:21:18.116Z,1.47
2019-05-31T19:23:46.716Z,1.50
2019-05-31T19:26:15.225Z,1.53
2019-05-31T19:28:43.673Z,1.43
2019-05-31T19:31:13.697Z,1.53
2019-05-31T19:33:42.737Z,1.53
2019-05-31T19:36:11.888Z,1.60
2019-05-31T19:38:40.338Z,1.70
2019-05-31T19:41:08.845Z,1.77
2019-05-31T19:43:37.351Z,1.87
2019-05-31T19:46:05.866Z,1.90
2019-05-31T19:48:34.324Z,1.90
2019-05-31T19:51:02.903Z,2.33
2019-05-31T19:53:31.468Z,1.87
2019-05-31T19:56:12.641Z,1.87
2019-05-31T19:58:30.275Z,1.90
2019-05-31T20:00:58.735Z,1.80
2019-05-31T20:03:27.279Z,1.70
2019-05-31T20:05:55.704Z,2.40
2019-05-31T20:08:24.329Z,1.87
2019-05-31T20:10:52.901Z,2.93
2019-05-31T20:13:21.527Z,2.37
2019-05-31T20:15:50.025Z,3.70
2019-05-31T20:18:18.980Z,2.80
2019-05-31T20:20:48.613Z,2.60
2019-05-31T20:23:20.475Z,3.00
2019-05-31T20:25:47.315Z,2.90
2019-05-31T20:28:20.723Z,2.93
2019-05-31T20:30:46.094Z,2.63
2019-05-31T20:33:14.620Z,3.43
2019-05-31T20:35:44.110Z,3.63
2019-05-31T20:38:12.758Z,3.53
2019-05-31T20:40:41.254Z,3.73
2019-05-31T20:43:09.783Z,3.57
2019-05-31T20:45:38.246Z,3.77
2019-05-31T20:48:06.699Z,3.30
2019-05-31T20:50:35.304Z,3.30
2019-05-31T20:53:03.733Z,3.30
2019-05-31T20:55:33.399Z,3.53
2019-05-31T20:58:02.159Z,3.17
2019-05-31T21:00:30.881Z,4.20
2019-05-31T21:02:59.377Z,3.80
2019-05-31T21:05:29.456Z,3.67
2019-05-31T21:07:58.143Z,3.60
2019-05-31T21:10:27.770Z,3.90
2019-05-31T21:12:56.642Z,4.57
2019-05-31T21:15:26.042Z,3.87
2019-05-31T21:17:54.485Z,3.97
2019-05-31T21:20:23.260Z,4.67
2019-05-31T21:22:51.830Z,4.37
2019-05-31T21:25:20.438Z,3.30
2019-05-31T21:27:48.895Z,3.57
2019-05-31T21:30:19.891Z,3.90
2019-05-31T21:32:47.805Z,3.43
2019-05-31T21:35:16.458Z,3.20
2019-05-31T21:37:44.898Z,3.40
2019-05-31T21:40:14.169Z,2.87
2019-05-31T21:42:42.634Z,3.17
2019-05-31T21:45:11.293Z,3.40
2019-05-31T21:47:39.729Z,3.87
2019-05-31T21:50:09.846Z,3.87
2019-05-31T21:52:38.276Z,3.20
2019-05-31T21:55:07.159Z,3.47
2019-05-31T21:57:35.636Z,3.60
2019-05-31T22:00:11.124Z,3.10
2019-05-31T22:02:39.721Z,3.43
2019-05-31T22:05:08.477Z,3.43
2019-05-31T22:07:37.001Z,2.80
2019-05-31T22:10:06.858Z,3.30
2019-05-31T22:12:35.372Z,3.30
2019-05-31T22:15:05.353Z,3.53
2019-05-31T22:17:34.017Z,3.87
2019-05-31T22:20:02.581Z,3.97
2019-05-31T22:22:32.313Z,3.93
2019-05-31T22:25:00.830Z,3.80
2019-05-31T22:27:30.084Z,3.80
2019-05-31T22:29:59.957Z,4.07
2019-05-31T22:32:29.361Z,3.73
2019-05-31T22:34:58.098Z,4.73
2019-05-31T22:37:26.564Z,4.13
2019-05-31T22:39:54.988Z,4.97
2019-05-31T22:42:23.442Z,5.03
2019-05-31T22:44:51.866Z,6.80
2019-05-31T22:47:20.305Z,5.40
2019-05-31T22:49:48.716Z,6.20
2019-05-31T22:52:17.189Z,5.57
2019-05-31T22:54:45.629Z,4.73
2019-05-31T22:57:14.060Z,4.63
2019-05-31T22:59:46.518Z,4.20
2019-05-31T23:02:12.630Z,4.20
2019-05-31T23:04:41.131Z,4.10
2019-05-31T23:07:09.536Z,4.00
2019-05-31T23:09:38.040Z,4.27
2019-05-31T23:12:06.481Z,4.50
2019-05-31T23:14:34.930Z,4.23
2019-05-31T23:17:03.647Z,3.90
2019-05-31T23:19:32.082Z,4.33
2019-05-31T23:22:00.538Z,4.37
2019-05-31T23:24:29.012Z,4.67
2019-05-31T23:26:57.443Z,4.20
2019-05-31T23:29:25.899Z,4.20
2019-05-31T23:31:54.363Z,4.00
2019-05-31T23:34:22.823Z,4.00
2019-05-31T23:36:51.234Z,3.93
2019-05-31T23:39:19.689Z,4.20
2019-05-31T23:41:48.118Z,4.40
2019-05-31T23:44:16.538Z,3.90
2019-05-31T23:46:45.068Z,4.43
2019-05-31T23:49:13.720Z,4.33
2019-05-31T23:51:43.613Z,4.63
2019-05-31T23:54:12.170Z,4.60
2019-05-31T23:56:41.858Z,4.57
2019-05-31T23:59:10.524Z,4.53
